Time;durP1;ratioP1;P1;durP2;ratioP2;P2;SDS_P1;SDS_P2;PMS_P1;PMS_P2;Temp;Humidity;BMP_temperature;BMP_pressure;BME280_temperature;BME280_humidity;BME280_pressure;Samples;Min_cycle;Max_cycle;Signal;HPM_P1;HPM_P2
2020/12/23 00:02:06;;;;;;;136.47;65.60;;;;;;;4.57;100.00;96393.84;5070361;28;20273;-69
2020/12/23 00:04:35;;;;;;;137.87;66.77;;;;;;;4.61;100.00;96393.16;5070164;28;20581;-70
2020/12/23 00:07:02;;;;;;;153.07;70.77;;;;;;;4.67;100.00;96388.88;5070312;28;20239;-68
2020/12/23 00:09:28;;;;;;;147.40;68.70;;;;;;;4.69;100.00;96386.81;5070266;28;20632;-69
2020/12/23 00:11:56;;;;;;;162.07;69.73;;;;;;;4.55;100.00;96393.28;5070448;28;20257;-68
2020/12/23 00:14:23;;;;;;;144.43;65.87;;;;;;;4.57;100.00;96396.44;5070416;28;20579;-68
2020/12/23 00:16:50;;;;;;;130.33;62.40;;;;;;;4.56;100.00;96400.00;5070175;28;20821;-69
2020/12/23 00:19:17;;;;;;;129.47;60.17;;;;;;;4.53;100.00;96398.69;5070127;28;20249;-68
2020/12/23 00:21:44;;;;;;;128.27;56.27;;;;;;;4.52;100.00;96414.34;5070094;28;20196;-68
2020/12/23 00:24:11;;;;;;;114.33;53.33;;;;;;;4.49;100.00;96415.59;5069911;28;20786;-69
2020/12/23 00:26:37;;;;;;;118.53;55.03;;;;;;;4.49;100.00;96418.16;5069981;28;20208;-69
2020/12/23 00:29:05;;;;;;;120.10;54.63;;;;;;;4.54;100.00;96407.16;5070067;28;20664;-68
2020/12/23 00:31:32;;;;;;;116.90;57.17;;;;;;;4.56;100.00;96410.28;5070026;28;20188;-68
2020/12/23 00:33:58;;;;;;;129.20;58.97;;;;;;;4.60;100.00;96414.75;5070040;28;20192;-69
2020/12/23 00:36:25;;;;;;;119.00;56.83;;;;;;;4.58;100.00;96414.19;5069890;28;20251;-68
2020/12/23 00:38:52;;;;;;;125.63;57.40;;;;;;;4.55;100.00;96408.72;5070743;28;20199;-69
2020/12/23 00:41:19;;;;;;;117.20;57.70;;;;;;;4.61;100.00;96410.38;5070168;28;20279;-69
2020/12/23 00:43:46;;;;;;;126.03;56.17;;;;;;;4.67;100.00;96409.47;5069733;28;20329;-69
2020/12/23 00:46:14;;;;;;;123.10;58.13;;;;;;;4.62;100.00;96411.94;5069968;28;20189;-69
2020/12/23 00:48:41;;;;;;;120.20;55.43;;;;;;;4.59;100.00;96409.81;5069793;28;20682;-68
2020/12/23 00:51:10;;;;;;;124.13;57.07;;;;;;;4.57;100.00;96411.88;5069813;28;20192;-69
2020/12/23 00:53:36;;;;;;;118.53;53.03;;;;;;;4.62;100.00;96410.16;5069729;28;20209;-67
2020/12/23 00:56:03;;;;;;;102.67;48.80;;;;;;;4.65;100.00;96408.91;5069997;28;20648;-69
2020/12/23 00:58:30;;;;;;;104.10;48.57;;;;;;;4.60;100.00;96406.25;5069896;28;20191;-69
2020/12/23 01:00:57;;;;;;;131.73;56.57;;;;;;;4.65;100.00;96408.91;5070084;28;20596;-68
2020/12/23 01:03:25;;;;;;;122.60;52.53;;;;;;;4.66;100.00;96400.94;5069900;28;20220;-70
2020/12/23 01:05:52;;;;;;;117.00;54.30;;;;;;;4.68;100.00;96400.72;5073884;28;20204;-69
2020/12/23 01:08:19;;;;;;;103.57;50.60;;;;;;;4.65;100.00;96406.31;5073839;28;20188;-69
2020/12/23 01:10:46;;;;;;;109.87;51.27;;;;;;;4.65;100.00;96404.53;5073703;28;20234;-69
2020/12/23 01:13:13;;;;;;;112.67;52.57;;;;;;;4.66;100.00;96402.75;5073609;28;20321;-68
2020/12/23 01:15:40;;;;;;;110.57;51.07;;;;;;;4.61;100.00;96397.50;5073596;28;20675;-69
2020/12/23 01:18:07;;;;;;;119.33;51.80;;;;;;;4.64;100.00;96400.38;5073333;28;20188;-68
2020/12/23 01:20:35;;;;;;;114.27;52.60;;;;;;;4.62;100.00;96401.66;5073483;28;20200;-68
2020/12/23 01:23:01;;;;;;;113.03;50.90;;;;;;;4.60;100.00;96396.72;5073439;28;20228;-70
2020/12/23 01:25:29;;;;;;;109.87;51.13;;;;;;;4.55;100.00;96393.28;5073122;28;20188;-69
2020/12/23 01:27:56;;;;;;;106.03;51.60;;;;;;;4.62;100.00;96391.34;5073442;28;20292;-69
2020/12/23 01:30:23;;;;;;;115.67;50.27;;;;;;;4.44;100.00;96382.03;5073186;28;20203;-69
2020/12/23 01:32:50;;;;;;;113.40;52.27;;;;;;;4.43;100.00;96388.22;5073178;28;20195;-68
2020/12/23 01:35:17;;;;;;;117.47;52.83;;;;;;;4.43;100.00;96379.72;5073094;28;20209;-68
2020/12/23 01:37:45;;;;;;;114.50;53.57;;;;;;;4.48;100.00;96385.75;5073313;28;20197;-69
2020/12/23 01:40:12;;;;;;;106.30;49.73;;;;;;;4.46;100.00;96379.25;5073081;28;20197;-69
2020/12/23 01:42:38;;;;;;;112.10;51.00;;;;;;;4.40;100.00;96373.22;5072633;28;20248;-68
2020/12/23 01:45:07;;;;;;;106.47;50.40;;;;;;;4.43;100.00;96362.50;5073030;28;20201;-69
2020/12/23 01:47:36;;;;;;;122.17;56.57;;;;;;;4.39;100.00;96360.59;5073277;28;20192;-66
2020/12/23 01:50:03;;;;;;;138.40;62.23;;;;;;;4.34;100.00;96358.72;5073067;28;20189;-68
2020/12/23 01:52:30;;;;;;;134.13;62.00;;;;;;;4.40;100.00;96355.22;5073004;28;20200;-69
2020/12/23 01:55:00;;;;;;;130.23;61.40;;;;;;;4.49;100.00;96353.03;5072706;28;20195;-68
2020/12/23 01:57:26;;;;;;;127.43;58.13;;;;;;;4.52;100.00;96353.38;5072740;28;20200;-68
2020/12/23 01:59:53;;;;;;;125.83;59.17;;;;;;;4.59;100.00;96342.91;5072620;28;20699;-69
2020/12/23 02:02:38;;;;;;;129.60;61.23;;;;;;;4.56;100.00;96343.38;5072468;28;20734;-69
2020/12/23 02:05:07;;;;;;;132.20;61.70;;;;;;;4.59;100.00;96346.25;5072615;28;20197;-68
2020/12/23 02:07:34;;;;;;;136.83;61.63;;;;;;;4.65;100.00;96347.91;5072523;28;20283;-69
2020/12/23 02:10:04;;;;;;;130.10;58.70;;;;;;;4.68;100.00;96338.94;5072618;28;20703;-69
2020/12/23 02:12:31;;;;;;;144.20;62.17;;;;;;;4.64;100.00;96341.19;5072567;28;20641;-69
2020/12/23 02:15:08;;;;;;;139.13;63.37;;;;;;;4.59;100.00;96343.69;5072315;28;20694;-69
2020/12/23 02:17:35;;;;;;;127.90;61.17;;;;;;;4.63;100.00;96333.72;5071952;28;20192;-70
2020/12/23 02:20:03;;;;;;;125.00;59.73;;;;;;;4.70;100.00;96334.31;5072368;28;20204;-67
2020/12/23 02:22:31;;;;;;;132.47;60.97;;;;;;;4.71;100.00;96335.88;5072316;28;20197;-69
2020/12/23 02:24:58;;;;;;;130.63;60.60;;;;;;;4.69;100.00;96332.75;5072108;28;20683;-70
2020/12/23 02:27:25;;;;;;;125.33;58.37;;;;;;;4.68;100.00;96326.06;5072299;28;20188;-69
2020/12/23 02:29:54;;;;;;;124.40;58.00;;;;;;;4.71;100.00;96333.31;5072417;28;20214;-68
2020/12/23 02:32:22;;;;;;;117.43;56.73;;;;;;;4.60;100.00;96329.03;5072240;28;20193;-69
2020/12/23 02:34:49;;;;;;;115.83;55.07;;;;;;;4.62;100.00;96330.38;5071991;28;20213;-69
2020/12/23 02:37:17;;;;;;;115.87;54.60;;;;;;;4.62;100.00;96332.16;5072056;28;20227;-69
2020/12/23 02:39:46;;;;;;;109.80;53.97;;;;;;;4.58;100.00;96333.66;5072622;28;20210;-69
2020/12/23 02:42:12;;;;;;;118.20;55.10;;;;;;;4.63;100.00;96326.00;5071729;28;20228;-69
2020/12/23 02:44:39;;;;;;;112.63;54.80;;;;;;;4.69;100.00;96332.75;5071932;28;20671;-69
2020/12/23 02:47:10;;;;;;;117.13;55.03;;;;;;;4.65;100.00;96329.09;5071995;28;20638;-69
2020/12/23 02:49:37;;;;;;;120.47;56.47;;;;;;;4.62;100.00;96330.38;5072048;28;20200;-70
2020/12/23 02:52:04;;;;;;;104.47;52.47;;;;;;;4.62;100.00;96325.22;5071797;28;20242;-70
2020/12/23 02:54:35;;;;;;;112.17;54.07;;;;;;;4.64;100.00;96332.69;5071725;28;20197;-69
2020/12/23 02:57:03;;;;;;;122.23;54.07;;;;;;;4.70;100.00;96318.88;5071878;28;20192;-70
2020/12/23 02:59:29;;;;;;;111.57;52.73;;;;;;;4.75;100.00;96332.59;5071678;28;20655;-69
2020/12/23 03:01:56;;;;;;;107.47;50.27;;;;;;;4.70;100.00;96324.81;5071562;28;20200;-69
2020/12/23 03:04:23;;;;;;;104.90;51.03;;;;;;;4.75;100.00;96331.81;5071475;28;20225;-67
2020/12/23 03:06:50;;;;;;;103.10;50.50;;;;;;;4.75;100.00;96332.59;5071571;28;20193;-69
2020/12/23 03:09:17;;;;;;;111.93;51.97;;;;;;;4.78;100.00;96337.28;5071423;28;20201;-69
2020/12/23 03:11:44;;;;;;;104.93;48.77;;;;;;;4.78;100.00;96331.38;5071417;28;20193;-69
2020/12/23 03:14:12;;;;;;;105.63;49.20;;;;;;;4.76;100.00;96333.38;5071447;28;20196;-70
2020/12/23 03:16:39;;;;;;;97.63;47.80;;;;;;;4.88;100.00;96336.63;5071792;28;20188;-68
2020/12/23 03:19:06;;;;;;;97.13;49.97;;;;;;;4.88;100.00;96335.88;5071109;28;20231;-69
2020/12/23 03:21:32;;;;;;;105.70;52.37;;;;;;;4.89;100.00;96337.41;5071155;28;20188;-69
2020/12/23 03:23:59;;;;;;;118.03;52.53;;;;;;;4.87;100.00;96329.97;5071253;28;20239;-68
2020/12/23 03:26:26;;;;;;;117.47;53.07;;;;;;;4.87;100.00;96342.84;5071114;28;20200;-69
2020/12/23 03:28:53;;;;;;;113.87;54.17;;;;;;;4.96;100.00;96338.84;5070175;28;20208;-69
2020/12/23 03:31:21;;;;;;;116.80;55.53;;;;;;;4.84;100.00;96345.84;5070977;28;20230;-64
2020/12/23 03:33:48;;;;;;;114.23;53.97;;;;;;;4.88;100.00;96349.50;5071105;28;20202;-69
2020/12/23 03:36:15;;;;;;;116.40;54.30;;;;;;;4.90;100.00;96339.78;5070865;28;20220;-68
2020/12/23 03:38:42;;;;;;;113.17;55.13;;;;;;;4.86;100.00;96346.41;5070900;28;20211;-68
2020/12/23 03:41:09;;;;;;;125.70;57.63;;;;;;;4.85;100.00;96347.44;5070685;28;20550;-69
2020/12/23 03:43:36;;;;;;;120.60;56.30;;;;;;;4.74;100.00;96345.72;5070312;28;20235;-67
2020/12/23 03:46:03;;;;;;;114.80;56.27;;;;;;;4.76;100.00;96349.63;5070658;28;20199;-69
2020/12/23 03:48:31;;;;;;;125.23;56.90;;;;;;;4.79;100.00;96348.34;5070624;28;20196;-69
2020/12/23 03:50:57;;;;;;;128.80;57.53;;;;;;;4.87;100.00;96350.56;5070724;28;20200;-68
2020/12/23 03:53:24;;;;;;;125.27;56.83;;;;;;;4.86;100.00;96353.34;5070457;28;20192;-69
2020/12/23 03:55:51;;;;;;;126.83;58.03;;;;;;;4.77;100.00;96352.97;5070614;28;20739;-69
2020/12/23 03:58:18;;;;;;;148.40;67.57;;;;;;;4.82;100.00;96347.91;5070399;28;20622;-69
2020/12/23 04:00:45;;;;;;;142.63;64.50;;;;;;;4.84;100.00;96351.00;5070449;28;20196;-69
2020/12/23 04:03:12;;;;;;;138.83;63.40;;;;;;;4.83;100.00;96348.69;5070326;28;20244;-69
2020/12/23 04:05:40;;;;;;;135.20;64.50;;;;;;;4.90;100.00;96344.13;5070283;28;20203;-70
2020/12/23 04:08:07;;;;;;;130.13;60.93;;;;;;;4.82;100.00;96353.06;5070588;28;20188;-70
2020/12/23 04:10:34;;;;;;;127.03;60.77;;;;;;;4.78;100.00;96348.63;5070312;28;20232;-71
2020/12/23 04:13:01;;;;;;;124.20;60.67;;;;;;;4.76;100.00;96348.84;5070216;28;20196;-70
2020/12/23 04:15:28;;;;;;;122.53;59.93;;;;;;;4.80;100.00;96349.91;5070221;28;20200;-68
2020/12/23 04:17:55;;;;;;;146.87;69.00;;;;;;;4.89;100.00;96345.94;5070379;28;20203;-69
2020/12/23 04:20:22;;;;;;;144.57;67.03;;;;;;;4.89;100.00;96347.72;5070261;28;20195;-69
2020/12/23 04:22:50;;;;;;;143.00;67.03;;;;;;;4.81;100.00;96348.13;5070222;28;20231;-68
2020/12/23 04:25:17;;;;;;;150.13;66.47;;;;;;;4.82;100.00;96353.06;5070163;28;20234;-69
2020/12/23 04:27:44;;;;;;;136.03;64.83;;;;;;;4.76;100.00;96359.91;5069879;28;20211;-69
2020/12/23 04:30:11;;;;;;;146.33;65.47;;;;;;;4.65;100.00;96357.41;5069855;28;20196;-69
2020/12/23 04:32:38;;;;;;;139.60;67.67;;;;;;;4.65;100.00;96362.56;5069882;28;20193;-70
2020/12/23 04:35:05;;;;;;;157.03;71.10;;;;;;;4.69;100.00;96359.28;5069939;28;20218;-65
2020/12/23 04:37:34;;;;;;;146.83;67.47;;;;;;;4.78;100.00;96362.28;5070017;28;20189;-69
2020/12/23 04:40:03;;;;;;;132.40;65.40;;;;;;;4.78;100.00;96362.28;5069528;28;20193;-68
2020/12/23 04:42:31;;;;;;;135.40;65.20;;;;;;;4.75;100.00;96353.22;5069557;28;20722;-69
2020/12/23 04:44:59;;;;;;;131.30;65.20;;;;;;;4.96;100.00;96343.97;5069914;28;20199;-69
2020/12/23 04:47:27;;;;;;;138.80;65.03;;;;;;;4.90;100.00;96347.50;5069965;28;20193;-69
2020/12/23 04:49:56;;;;;;;133.83;64.57;;;;;;;4.90;100.00;96341.56;5069888;28;20196;-69
2020/12/23 04:52:30;;;;;;;131.77;64.97;;;;;;;4.88;100.00;96348.75;5069986;28;20280;-69
2020/12/23 04:54:59;;;;;;;132.37;62.57;;;;;;;4.95;100.00;96351.94;5069924;28;20199;-70
2020/12/23 04:57:28;;;;;;;152.43;72.80;;;;;;;4.96;100.00;96359.44;5069834;28;20585;-69
2020/12/23 04:59:55;;;;;;;152.83;68.60;;;;;;;4.87;100.00;96350.56;5070058;28;20197;-68
2020/12/23 05:02:22;;;;;;;137.13;64.63;;;;;;;4.87;100.00;96354.91;5069831;28;20211;-70
2020/12/23 05:04:49;;;;;;;147.30;71.47;;;;;;;4.86;100.00;96351.56;5069867;28;20228;-69
2020/12/23 05:07:20;;;;;;;201.47;84.53;;;;;;;4.86;100.00;96349.00;5069892;28;20201;-69
2020/12/23 05:09:48;;;;;;;180.10;77.40;;;;;;;4.86;100.00;96343.84;5070057;28;20204;-69
2020/12/23 05:12:15;;;;;;;159.13;73.40;;;;;;;4.84;100.00;96350.22;5070388;28;20200;-69
2020/12/23 05:14:43;;;;;;;154.93;72.03;;;;;;;4.89;100.00;96353.66;5069640;28;20196;-69
2020/12/23 05:17:11;;;;;;;171.87;78.23;;;;;;;4.92;100.00;96353.22;5069986;28;20205;-71
2020/12/23 05:19:39;;;;;;;149.63;70.40;;;;;;;4.94;100.00;96361.47;5069865;28;20196;-67
2020/12/23 05:22:09;;;;;;;216.93;94.00;;;;;;;4.95;100.00;96363.03;5069506;28;20425;-67
2020/12/23 05:24:39;;;;;;;144.87;68.47;;;;;;;4.96;100.00;96353.50;5069488;28;20229;-66
2020/12/23 05:27:06;;;;;;;142.37;66.17;;;;;;;4.94;100.00;96361.47;5069283;28;20203;-68
2020/12/23 05:29:34;;;;;;;154.57;69.47;;;;;;;4.89;100.00;96356.22;5069506;28;20196;-68
2020/12/23 05:32:04;;;;;;;157.20;73.50;;;;;;;4.88;100.00;96357.25;5069321;28;20203;-68
2020/12/23 05:34:33;;;;;;;170.43;76.97;;;;;;;4.95;100.00;96352.72;5069296;28;20201;-70
2020/12/23 05:37:03;;;;;;;191.43;92.77;;;;;;;4.97;100.00;96363.56;5069371;28;20363;-67
2020/12/23 05:39:31;;;;;;;185.07;90.30;;;;;;;4.98;100.00;96362.53;5069349;28;20193;-69
2020/12/23 05:41:59;;;;;;;156.00;76.83;;;;;;;5.01;100.00;96367.22;5069007;28;20193;-69
2020/12/23 05:44:26;;;;;;;280.40;146.23;;;;;;;4.96;100.00;96374.88;5069436;28;20601;-69
2020/12/23 05:46:54;;;;;;;143.87;73.33;;;;;;;5.02;100.00;96373.16;5069162;28;20245;-70
2020/12/23 05:49:24;;;;;;;139.00;69.50;;;;;;;4.94;100.00;96374.34;5069516;28;20193;-66
2020/12/23 05:51:52;;;;;;;155.07;74.47;;;;;;;4.98;100.00;96379.81;5071418;28;20590;-66
2020/12/23 05:54:19;;;;;;;169.17;72.23;;;;;;;4.97;100.00;96378.25;5072701;28;20275;-70
2020/12/23 05:56:46;;;;;;;159.87;74.93;;;;;;;4.95;100.00;96378.47;5072749;28;20204;-69
2020/12/23 05:59:13;;;;;;;139.17;67.50;;;;;;;4.93;100.00;96385.66;5072566;28;20200;-70
2020/12/23 06:01:40;;;;;;;132.53;65.33;;;;;;;4.97;100.00;96391.13;5072680;28;20202;-69
2020/12/23 06:04:10;;;;;;;143.27;66.53;;;;;;;4.98;100.00;96390.88;5072686;28;20232;-69
2020/12/23 06:06:37;;;;;;;137.83;64.07;;;;;;;4.99;100.00;96392.44;5072705;28;20197;-68
2020/12/23 06:09:06;;;;;;;131.10;63.27;;;;;;;5.00;100.00;96388.06;5072501;28;20188;-70
2020/12/23 06:11:37;;;;;;;136.13;64.37;;;;;;;5.09;100.00;96390.00;5073127;28;20212;-70
2020/12/23 06:14:15;;;;;;;153.47;71.57;;;;;;;5.15;100.00;96393.44;5072438;28;20283;-70
2020/12/23 06:16:46;;;;;;;146.40;66.87;;;;;;;5.18;100.00;96395.56;5072389;28;20226;-70
2020/12/23 06:19:24;;;;;;;146.77;69.83;;;;;;;5.16;100.00;96393.22;5072363;28;20686;-69
2020/12/23 06:21:53;;;;;;;162.80;76.03;;;;;;;5.20;100.00;96390.94;5072251;28;20574;-70
2020/12/23 06:24:20;;;;;;;203.67;87.73;;;;;;;5.19;100.00;96390.16;5072142;28;20254;-68
2020/12/23 06:26:48;;;;;;;171.83;84.47;;;;;;;5.15;100.00;96394.22;5072369;28;20205;-70
2020/12/23 06:29:16;;;;;;;156.73;90.87;;;;;;;5.05;100.00;96390.72;5072385;28;20718;-69
2020/12/23 06:31:45;;;;;;;127.43;66.37;;;;;;;5.12;100.00;96394.72;5072065;28;20204;-69
2020/12/23 06:34:17;;;;;;;130.53;70.27;;;;;;;5.09;100.00;96389.22;5072175;28;20674;-70
2020/12/23 06:36:44;;;;;;;114.67;63.90;;;;;;;5.17;100.00;96387.06;5071945;28;20212;-69
2020/12/23 06:39:27;;;;;;;103.53;55.37;;;;;;;5.18;100.00;96387.84;5072175;28;20341;-71
2020/12/23 06:41:56;;;;;;;112.33;53.73;;;;;;;5.12;100.00;96394.72;5071704;28;20200;-67
2020/12/23 06:44:23;;;;;;;102.77;51.27;;;;;;;5.23;100.00;96394.84;5071926;28;20600;-69
2020/12/23 06:47:09;;;;;;;104.30;55.27;;;;;;;5.35;100.00;96398.88;5071915;28;20242;-69
2020/12/23 06:49:37;;;;;;;109.93;58.77;;;;;;;5.35;100.00;96398.09;5071688;28;20275;-69
2020/12/23 06:52:29;;;;;;;119.97;56.90;;;;;;;5.34;100.00;96404.25;5071903;28;20203;-70
2020/12/23 06:55:00;;;;;;;168.63;76.17;;;;;;;5.46;100.00;96410.88;5071719;28;20204;-70
2020/12/23 06:57:55;;;;;;;137.40;63.70;;;;;;;5.54;100.00;96407.88;5071827;28;20206;-70
2020/12/23 07:00:41;;;;;;;110.63;54.77;;;;;;;5.62;100.00;96414.44;5071845;28;20197;-69
2020/12/23 07:03:10;;;;;;;145.33;64.33;;;;;;;5.67;100.00;96424.81;5071272;28;20607;-69
2020/12/23 07:05:44;;;;;;;159.13;69.10;;;;;;;5.72;100.00;96422.31;5071323;28;20197;-68
2020/12/23 07:08:16;;;;;;;162.00;65.57;;;;;;;5.72;100.00;96424.88;5071322;28;20203;-69
2020/12/23 07:10:50;;;;;;;273.13;99.13;;;;;;;5.76;100.00;96425.97;5071550;28;20203;-70
2020/12/23 07:13:20;;;;;;;307.03;111.60;;;;;;;5.88;100.00;96429.22;5071473;28;20192;-69
2020/12/23 07:15:56;;;;;;;276.07;110.10;;;;;;;5.92;100.00;96429.53;5071290;28;20280;-70
2020/12/23 07:18:28;;;;;;;270.77;120.93;;;;;;;5.96;100.00;96425.47;5071195;28;20583;-71
2020/12/23 07:21:01;;;;;;;184.97;86.40;;;;;;;6.09;100.00;96426.88;5071026;28;20204;-70
2020/12/23 07:23:30;;;;;;;166.80;78.17;;;;;;;6.11;100.00;96427.44;5071021;28;20239;-69
2020/12/23 07:26:01;;;;;;;141.70;71.33;;;;;;;6.18;100.00;96428.00;5071252;28;20289;-70
2020/12/23 07:28:31;;;;;;;149.73;70.53;;;;;;;6.28;100.00;96425.53;5071098;28;20571;-70
2020/12/23 07:30:59;;;;;;;175.50;90.73;;;;;;;6.34;100.00;96427.16;5070925;28;20193;-69
2020/12/23 07:33:27;;;;;;;151.17;76.27;;;;;;;6.44;100.00;96427.25;5071176;28;20217;-70
2020/12/23 07:35:56;;;;;;;148.40;76.47;;;;;;;6.53;100.00;96425.78;5070758;28;20718;-68
2020/12/23 07:38:25;;;;;;;131.97;66.57;;;;;;;6.60;100.00;96435.94;5070798;28;20193;-69
2020/12/23 07:40:52;;;;;;;106.57;53.70;;;;;;;6.63;100.00;96420.72;5070948;28;20244;-70
2020/12/23 07:43:21;;;;;;;97.67;50.33;;;;;;;6.65;100.00;96434.16;5070482;28;20285;-70
2020/12/23 07:45:49;;;;;;;135.47;57.53;;;;;;;6.67;100.00;96445.06;5070480;28;20211;-70
2020/12/23 07:48:18;;;;;;;119.60;55.53;;;;;;;6.75;100.00;96436.84;5071063;28;20197;-71
2020/12/23 07:50:46;;;;;;;113.03;51.87;;;;;;;6.89;100.00;96432.81;5070791;28;20231;-70
2020/12/23 07:53:15;;;;;;;95.57;45.77;;;;;;;6.99;100.00;96434.72;5070690;28;20202;-71
2020/12/23 07:55:43;;;;;;;110.77;53.10;;;;;;;7.08;100.00;96428.06;5070503;28;20196;-71
2020/12/23 07:58:11;;;;;;;126.07;59.50;;;;;;;7.24;100.00;96421.19;5070806;28;20228;-70
2020/12/23 08:00:40;;;;;;;63.10;30.50;;;;;;;7.42;99.92;96425.97;5070631;28;20197;-72
2020/12/23 08:03:07;;;;;;;72.60;32.97;;;;;;;7.43;100.00;96419.75;5070585;28;20232;-72
2020/12/23 08:05:34;;;;;;;73.80;35.03;;;;;;;7.59;100.00;96429.16;5070719;28;20326;-71
2020/12/23 08:08:01;;;;;;;42.13;22.57;;;;;;;7.68;100.00;96430.25;5070477;28;20212;-71
2020/12/23 08:10:28;;;;;;;29.87;16.70;;;;;;;7.78;99.84;96429.50;5070529;28;20276;-69
2020/12/23 08:12:57;;;;;;;31.33;15.93;;;;;;;7.96;98.87;96433.47;5070765;28;20193;-71
2020/12/23 08:15:25;;;;;;;29.27;15.97;;;;;;;8.19;99.13;96436.41;5069857;28;20250;-71
2020/12/23 08:18:05;;;;;;;36.73;19.30;;;;;;;8.13;97.80;96436.63;5070021;28;20664;-72
2020/12/23 08:20:33;;;;;;;47.23;23.83;;;;;;;8.17;98.06;96445.44;5069950;28;20199;-71
2020/12/23 08:23:01;;;;;;;28.10;17.03;;;;;;;8.07;96.54;96445.44;5070228;28;20215;-72
2020/12/23 08:25:29;;;;;;;24.57;14.33;;;;;;;8.15;96.48;96450.13;5070026;28;20283;-70
2020/12/23 08:27:58;;;;;;;26.40;14.20;;;;;;;8.22;95.85;96451.41;5070033;28;20212;-70
2020/12/23 08:30:26;;;;;;;24.10;14.07;;;;;;;8.20;95.62;96455.31;5070129;28;20199;-70
2020/12/23 08:32:57;;;;;;;27.50;14.17;;;;;;;8.19;96.23;96449.34;5070358;28;20196;-71
2020/12/23 08:35:30;;;;;;;24.77;13.10;;;;;;;8.28;95.77;96447.03;5069854;28;20216;-70
2020/12/23 08:37:57;;;;;;;24.23;14.07;;;;;;;8.30;96.72;96437.25;5070119;28;20204;-71
2020/12/23 08:40:24;;;;;;;22.07;13.57;;;;;;;8.49;95.66;96433.16;5069812;28;20196;-72
2020/12/23 08:42:52;;;;;;;24.50;14.43;;;;;;;8.69;94.76;96432.41;5069605;28;20281;-70
2020/12/23 08:45:23;;;;;;;31.17;15.17;;;;;;;8.77;94.14;96428.50;5070092;28;20282;-71
2020/12/23 08:47:51;;;;;;;25.27;15.27;;;;;;;8.94;92.62;96427.22;5069851;28;20272;-70
2020/12/23 08:50:20;;;;;;;26.23;15.73;;;;;;;8.90;91.73;96417.63;5069755;28;20193;-70
2020/12/23 08:52:49;;;;;;;24.20;14.37;;;;;;;9.07;92.56;96424.09;5070216;28;20208;-71
2020/12/23 08:55:18;;;;;;;27.03;15.70;;;;;;;9.08;92.63;96417.88;5069924;28;20204;-71
2020/12/23 08:57:45;;;;;;;29.63;16.27;;;;;;;9.31;92.02;96403.63;5069778;28;20195;-71
2020/12/23 09:00:17;;;;;;;23.93;15.47;;;;;;;9.64;89.34;96399.63;5069883;28;20279;-71
2020/12/23 09:02:45;;;;;;;32.70;17.10;;;;;;;9.61;89.98;96387.19;5069708;28;20283;-71
2020/12/23 09:05:19;;;;;;;28.27;15.73;;;;;;;9.76;89.25;96386.38;5069644;28;20586;-72
2020/12/23 09:07:48;;;;;;;26.77;14.93;;;;;;;9.86;89.29;96378.53;5069567;28;20194;-70
2020/12/23 09:10:15;;;;;;;26.63;15.40;;;;;;;10.08;89.27;96376.34;5069813;28;20204;-69
2020/12/23 09:12:41;;;;;;;26.17;14.57;;;;;;;10.28;87.93;96385.88;5069627;28;20227;-72
2020/12/23 09:15:15;;;;;;;23.47;14.87;;;;;;;10.33;86.69;96391.81;5069737;28;20636;-71
2020/12/23 09:17:42;;;;;;;21.97;12.63;;;;;;;10.16;87.83;96383.59;5069604;28;20580;-71
2020/12/23 09:20:09;;;;;;;19.83;12.60;;;;;;;10.30;88.50;96373.41;5069749;28;20197;-71
2020/12/23 09:22:37;;;;;;;21.97;11.67;;;;;;;10.33;87.89;96380.66;5070041;28;20250;-68
2020/12/23 09:25:20;;;;;;;23.40;13.27;;;;;;;10.36;89.27;96386.06;5070457;28;20319;-69
2020/12/23 09:27:48;;;;;;;19.23;12.67;;;;;;;10.56;87.90;96381.81;5073627;28;20196;-72
2020/12/23 09:30:29;;;;;;;21.47;13.07;;;;;;;10.48;87.34;96374.56;5073463;28;20687;-70
2020/12/23 09:32:56;;;;;;;21.90;13.43;;;;;;;10.62;87.83;96365.09;5073702;28;20266;-71
2020/12/23 09:35:26;;;;;;;20.33;12.53;;;;;;;10.76;87.66;96366.03;5073335;28;20212;-73
2020/12/23 09:38:17;;;;;;;21.47;12.00;;;;;;;10.86;87.25;96371.16;5073364;28;20736;-72
2020/12/23 09:40:48;;;;;;;18.60;10.80;;;;;;;11.11;86.69;96363.13;5073601;28;20207;-72
2020/12/23 09:43:17;;;;;;;17.30;10.37;;;;;;;11.26;86.21;96362.22;5073194;28;20236;-72
2020/12/23 09:45:45;;;;;;;17.07;11.13;;;;;;;11.45;84.98;96363.06;5072959;28;20242;-73
2020/12/23 09:48:14;;;;;;;15.47;10.20;;;;;;;11.50;84.53;96349.22;5072953;28;20276;-72
2020/12/23 09:50:41;;;;;;;18.43;10.20;;;;;;;11.78;84.96;96339.81;5072636;28;20646;-73
2020/12/23 09:53:08;;;;;;;14.10;9.13;;;;;;;11.93;83.09;96337.78;5073042;28;20231;-70
2020/12/23 09:55:35;;;;;;;14.57;9.77;;;;;;;11.70;82.41;96333.38;5072930;28;20295;-74
2020/12/23 09:58:03;;;;;;;16.67;9.97;;;;;;;12.04;82.94;96336.59;5072912;28;20246;-71
2020/12/23 10:00:29;;;;;;;18.53;11.03;;;;;;;11.88;81.45;96329.25;5072902;28;20201;-71
2020/12/23 10:02:56;;;;;;;12.93;7.33;;;;;;;11.90;80.49;96330.53;5072548;28;20285;-72
2020/12/23 10:05:23;;;;;;;10.80;6.90;;;;;;;11.79;81.01;96328.34;5072404;28;20196;-71
2020/12/23 10:07:50;;;;;;;8.83;6.53;;;;;;;11.73;80.45;96332.84;5072465;28;20207;-71
2020/12/23 10:10:17;;;;;;;11.40;7.00;;;;;;;11.43;81.31;96335.75;5073117;28;20261;-72
2020/12/23 10:12:44;;;;;;;13.73;7.50;;;;;;;11.28;82.67;96328.91;5072456;28;20196;-73
2020/12/23 10:15:12;;;;;;;13.77;6.77;;;;;;;11.28;82.97;96328.13;5072533;28;20205;-73
2020/12/23 10:17:39;;;;;;;12.03;7.13;;;;;;;11.36;82.88;96333.47;5072605;28;20335;-71
2020/12/23 10:20:07;;;;;;;10.87;6.10;;;;;;;11.21;82.14;96324.00;5072664;28;20197;-69
2020/12/23 10:22:34;;;;;;;11.13;6.40;;;;;;;11.32;82.81;96321.31;5072198;28;20207;-73
2020/12/23 10:25:01;;;;;;;10.60;6.87;;;;;;;11.47;82.27;96314.09;5072226;28;20776;-71
2020/12/23 10:27:27;;;;;;;11.60;7.20;;;;;;;11.51;82.06;96303.91;5072407;28;20197;-70
2020/12/23 10:29:54;;;;;;;11.50;6.37;;;;;;;11.30;82.18;96295.56;5072028;28;20784;-71
2020/12/23 10:32:22;;;;;;;11.17;6.37;;;;;;;11.26;82.33;96297.16;5072002;28;20196;-71
2020/12/23 10:34:49;;;;;;;12.43;6.53;;;;;;;11.29;82.31;96301.06;5072229;28;20606;-72
2020/12/23 10:37:19;;;;;;;12.77;6.67;;;;;;;11.29;81.69;96295.84;5071475;28;20193;-73
2020/12/23 10:39:46;;;;;;;10.03;6.37;;;;;;;11.58;81.20;96299.91;5071959;28;20192;-71
2020/12/23 10:42:12;;;;;;;13.57;6.57;;;;;;;11.83;80.49;96285.81;5071444;28;20806;-72
2020/12/23 10:44:39;;;;;;;20.23;6.63;;;;;;;12.17;79.96;96295.25;5071902;28;20231;-70
2020/12/23 10:47:06;;;;;;;13.80;7.53;;;;;;;12.38;78.54;96299.09;5072006;28;20755;-73
2020/12/23 10:49:34;;;;;;;10.90;7.33;;;;;;;12.36;79.34;96296.00;5071719;28;20689;-72
2020/12/23 10:52:01;;;;;;;10.83;6.97;;;;;;;12.28;78.38;96296.66;5071686;28;20189;-72
2020/12/23 10:54:31;;;;;;;10.73;6.30;;;;;;;12.46;77.22;96298.44;5071769;28;20207;-73
2020/12/23 10:56:59;;;;;;;11.47;6.70;;;;;;;12.45;76.01;96302.13;5071940;28;20197;-73
2020/12/23 10:59:26;;;;;;;12.17;7.13;;;;;;;12.50;76.13;96308.03;5071734;28;20667;-73
2020/12/23 11:01:54;;;;;;;10.63;6.63;;;;;;;12.27;76.99;96297.72;5071775;28;20189;-72
2020/12/23 11:04:21;;;;;;;10.33;6.83;;;;;;;12.20;77.76;96299.91;5071633;28;20228;-73
2020/12/23 11:06:49;;;;;;;13.53;7.37;;;;;;;12.12;78.54;96290.09;5071518;28;20207;-71
2020/12/23 11:09:17;;;;;;;10.40;6.97;;;;;;;12.06;79.10;96287.56;5071598;28;20203;-71
2020/12/23 11:11:49;;;;;;;12.97;7.60;;;;;;;11.96;79.95;96279.13;5071386;28;20732;-71
2020/12/23 11:14:16;;;;;;;18.90;8.97;;;;;;;12.13;80.18;96273.44;5071276;28;20192;-71
2020/12/23 11:16:46;;;;;;;17.10;8.37;;;;;;;12.17;80.09;96272.56;5071030;28;20275;-67
2020/12/23 11:19:12;;;;;;;13.07;7.33;;;;;;;12.34;79.79;96269.47;5071148;28;20228;-73
2020/12/23 11:21:39;;;;;;;12.97;7.23;;;;;;;12.46;78.26;96267.94;5071070;28;20197;-71